createdAt,value
2019-01-31T00:00:51.618Z,16.80
2019-01-31T00:04:25.179Z,16.70
2019-01-31T00:07:56.323Z,16.70
2019-01-31T00:11:00.911Z,16.70
2019-01-31T00:14:35.588Z,16.60
2019-01-31T00:18:06.731Z,16.60
2019-01-31T00:21:11.815Z,16.60
2019-01-31T00:24:29.976Z,16.50
2019-01-31T00:28:00.847Z,16.50
2019-01-31T00:31:13.364Z,16.50
2019-01-31T00:35:01.616Z,16.50
2019-01-31T00:38:22.829Z,16.40
2019-01-31T00:41:40.522Z,16.40
2019-01-31T00:45:20.359Z,16.40
2019-01-31T00:48:40.527Z,16.40
2019-01-31T00:52:14.089Z,16.40
2019-01-31T00:55:23.780Z,16.30
2019-01-31T00:59:01.700Z,16.40
2019-01-31T01:02:23.883Z,16.30
2019-01-31T01:05:55.891Z,16.30
2019-01-31T01:09:17.425Z,16.30
2019-01-31T01:12:39.688Z,16.20
2019-01-31T01:15:48.760Z,16.20
2019-01-31T01:19:22.479Z,16.20
2019-01-31T01:22:42.858Z,16.20
2019-01-31T01:26:19.223Z,16.10
2019-01-31T01:29:28.474Z,16.20
2019-01-31T01:33:13.799Z,16.20
2019-01-31T01:36:32.968Z,16.10
2019-01-31T01:39:50.224Z,16.20
2019-01-31T01:43:00.288Z,16.10
2019-01-31T01:46:23.056Z,16.20
2019-01-31T01:49:29.398Z,16.20
2019-01-31T01:52:56.559Z,16.20
2019-01-31T01:56:16.181Z,16.20
2019-01-31T01:59:52.513Z,16.30
2019-01-31T02:03:45.183Z,16.30
2019-01-31T02:07:03.908Z,16.40
2019-01-31T02:10:24.555Z,16.40
2019-01-31T02:13:59.030Z,16.40
2019-01-31T02:17:31.974Z,16.40
2019-01-31T02:21:00.232Z,16.50
2019-01-31T02:24:52.254Z,16.50
2019-01-31T02:28:31.132Z,16.60
2019-01-31T02:32:03.133Z,16.60
2019-01-31T02:35:24.514Z,16.70
2019-01-31T02:39:08.680Z,16.70
2019-01-31T02:42:36.627Z,16.80
2019-01-31T02:46:01.632Z,16.80
2019-01-31T02:49:24.283Z,16.90
2019-01-31T02:52:50.095Z,16.90
2019-01-31T02:56:16.562Z,16.90
2019-01-31T02:59:45.299Z,17.00
2019-01-31T03:02:52.321Z,17.00
2019-01-31T03:06:08.409Z,17.00
2019-01-31T03:09:33.942Z,17.10
2019-01-31T03:13:05.164Z,17.10
2019-01-31T03:16:37.035Z,17.10
2019-01-31T03:19:59.019Z,17.20
2019-01-31T03:23:47.790Z,17.30
2019-01-31T03:27:45.046Z,17.30
2019-01-31T03:31:01.038Z,17.30
2019-01-31T03:34:25.295Z,17.40
2019-01-31T03:37:53.563Z,17.40
2019-01-31T03:41:05.950Z,17.50
2019-01-31T03:44:42.122Z,17.50
2019-01-31T03:48:33.476Z,17.60
2019-01-31T03:52:05.533Z,17.60
2019-01-31T03:55:40.596Z,17.70
2019-01-31T03:58:55.204Z,17.80
2019-01-31T04:02:28.742Z,17.80
2019-01-31T04:05:55.412Z,17.90
2019-01-31T04:35:14.408Z,17.90
2019-01-31T04:38:09.328Z,18.90
2019-01-31T04:41:04.390Z,18.90
2019-01-31T04:43:59.164Z,19.00
2019-01-31T04:46:54.030Z,19.00
2019-01-31T04:49:48.681Z,19.10
2019-01-31T04:52:44.646Z,19.10
2019-01-31T04:55:40.273Z,19.20
2019-01-31T04:58:35.485Z,19.30
2019-01-31T05:01:35.018Z,19.30
2019-01-31T05:04:30.139Z,19.40
2019-01-31T05:07:25.024Z,19.40
2019-01-31T05:10:19.807Z,19.50
2019-01-31T05:13:14.895Z,19.60
2019-01-31T05:16:17.110Z,19.70
2019-01-31T05:19:32.560Z,19.80
2019-01-31T05:23:00.583Z,19.80
2019-01-31T05:25:58.358Z,20.00
2019-01-31T05:28:55.585Z,20.00
2019-01-31T05:31:52.070Z,20.10
2019-01-31T05:34:47.810Z,20.20
2019-01-31T05:37:44.703Z,20.30
2019-01-31T05:40:42.128Z,20.40
2019-01-31T05:43:54.133Z,20.50
2019-01-31T05:50:54.063Z,20.60
2019-01-31T05:54:17.960Z,20.80
2019-01-31T06:01:39.089Z,20.90
2019-01-31T06:04:58.630Z,21.00
2019-01-31T06:09:05.857Z,21.10
2019-01-31T06:12:30.721Z,21.20
2019-01-31T06:16:20.642Z,21.30
2019-01-31T06:19:30.301Z,21.40
2019-01-31T06:22:29.376Z,21.50
2019-01-31T06:25:34.869Z,21.60
2019-01-31T06:28:35.445Z,21.60
2019-01-31T06:31:42.255Z,21.70
2019-01-31T06:34:48.179Z,21.80
2019-01-31T06:37:54.520Z,21.90
2019-01-31T06:41:01.392Z,21.90
2019-01-31T06:43:55.659Z,22.00
2019-01-31T06:46:52.477Z,22.10
2019-01-31T06:49:47.476Z,22.10
2019-01-31T06:52:42.745Z,22.20
2019-01-31T06:55:44.351Z,22.30
2019-01-31T06:58:48.111Z,22.30
2019-01-31T07:01:46.314Z,22.40
2019-01-31T07:04:58.402Z,22.50
2019-01-31T07:07:57.135Z,22.60
2019-01-31T07:10:52.179Z,22.80
2019-01-31T07:13:47.335Z,23.10
2019-01-31T07:20:25.184Z,23.70
2019-01-31T07:23:22.701Z,23.90
2019-01-31T07:26:19.038Z,24.00
2019-01-31T07:29:21.917Z,24.30
2019-01-31T07:35:33.515Z,24.80
2019-01-31T07:38:29.888Z,25.10
2019-01-31T07:41:25.570Z,25.20
2019-01-31T07:44:36.038Z,25.30
2019-01-31T07:47:50.077Z,25.30
2019-01-31T07:50:42.727Z,25.30
2019-01-31T07:53:40.830Z,25.30
2019-01-31T07:56:39.491Z,25.30
2019-01-31T08:00:25.323Z,25.30
2019-01-31T08:03:21.245Z,25.20
2019-01-31T08:06:28.501Z,25.20
2019-01-31T08:09:22.072Z,25.20
2019-01-31T08:12:18.370Z,25.20
2019-01-31T08:15:28.426Z,25.20
2019-01-31T08:18:27.129Z,25.20
2019-01-31T08:21:33.813Z,25.30
2019-01-31T08:24:28.028Z,25.30
2019-01-31T08:27:23.971Z,25.30
2019-01-31T08:30:24.563Z,25.30
2019-01-31T08:33:19.840Z,25.30
2019-01-31T08:36:14.879Z,25.30
2019-01-31T08:39:11.211Z,25.30
2019-01-31T08:42:06.730Z,25.30
2019-01-31T08:45:02.380Z,25.30
2019-01-31T08:47:57.688Z,25.30
2019-01-31T08:50:52.877Z,25.30
2019-01-31T08:54:02.639Z,25.30
2019-01-31T08:57:08.285Z,25.30
2019-01-31T09:00:02.536Z,25.40
2019-01-31T09:02:58.496Z,25.50
2019-01-31T09:05:54.687Z,25.60
2019-01-31T09:08:49.764Z,25.80
2019-01-31T09:11:45.370Z,26.00
2019-01-31T09:14:40.488Z,26.20
2019-01-31T09:17:36.054Z,26.40
2019-01-31T09:20:47.825Z,26.60
2019-01-31T09:24:14.614Z,26.90
2019-01-31T09:27:39.316Z,27.10
2019-01-31T09:31:11.608Z,27.30
2019-01-31T09:34:58.999Z,27.40
2019-01-31T09:38:30.279Z,27.50
2019-01-31T09:45:45.055Z,28.00
2019-01-31T09:49:41.738Z,28.30
2019-01-31T09:57:18.707Z,28.70
2019-01-31T09:57:21.087Z,29.20
2019-01-31T10:01:35.645Z,29.70
2019-01-31T10:06:04.529Z,30.00
2019-01-31T10:09:57.381Z,30.00
2019-01-31T10:13:44.784Z,29.80
2019-01-31T10:17:16.805Z,29.60
2019-01-31T10:20:58.595Z,29.40
2019-01-31T10:24:54.522Z,29.20
2019-01-31T10:28:48.403Z,28.90
2019-01-31T10:32:59.926Z,28.70
2019-01-31T11:05:54.534Z,28.00
2019-01-31T11:09:25.173Z,28.00
2019-01-31T11:13:15.396Z,28.00
2019-01-31T11:16:53.663Z,27.90
2019-01-31T11:20:12.618Z,27.80
2019-01-31T11:23:36.869Z,27.70
2019-01-31T11:27:21.598Z,27.60
2019-01-31T11:30:39.001Z,27.40
2019-01-31T11:33:56.381Z,27.20
2019-01-31T11:37:38.493Z,27.00
2019-01-31T11:41:23.008Z,26.80
2019-01-31T11:44:50.394Z,26.70
2019-01-31T11:48:46.463Z,26.60
2019-01-31T11:52:15.307Z,26.50
2019-01-31T11:55:54.724Z,26.40
2019-01-31T11:59:11.812Z,26.40
2019-01-31T12:02:11.558Z,26.30
2019-01-31T12:05:07.428Z,26.20
2019-01-31T12:08:03.235Z,26.10
2019-01-31T12:11:07.511Z,26.00
2019-01-31T12:14:02.945Z,25.80
2019-01-31T12:17:09.769Z,25.70
2019-01-31T12:20:14.647Z,25.60
2019-01-31T12:23:14.914Z,25.50
2019-01-31T12:26:13.867Z,25.30
2019-01-31T12:29:07.723Z,25.20
2019-01-31T12:32:05.350Z,25.10
2019-01-31T12:35:00.894Z,25.00
2019-01-31T12:37:56.210Z,24.90
2019-01-31T12:40:51.446Z,24.80
2019-01-31T12:43:47.602Z,24.70
2019-01-31T12:46:43.211Z,24.60
2019-01-31T12:49:45.348Z,24.50
2019-01-31T12:52:45.569Z,24.40
2019-01-31T12:55:41.929Z,24.40
2019-01-31T12:58:37.585Z,24.20
2019-01-31T13:01:33.127Z,24.20
2019-01-31T13:04:28.571Z,24.10
2019-01-31T13:07:24.357Z,24.00
2019-01-31T13:10:19.802Z,23.90
2019-01-31T13:13:15.523Z,23.90
2019-01-31T13:16:35.054Z,23.80
2019-01-31T13:19:31.146Z,23.80
2019-01-31T13:22:26.589Z,23.70
2019-01-31T13:25:22.751Z,23.70
2019-01-31T13:28:18.102Z,23.60
2019-01-31T13:31:13.625Z,23.60
2019-01-31T13:34:09.486Z,23.50
2019-01-31T13:37:04.900Z,23.50
2019-01-31T13:40:03.104Z,23.50
2019-01-31T13:42:59.930Z,23.50
2019-01-31T13:45:58.351Z,23.40
2019-01-31T13:48:55.818Z,23.40
2019-01-31T13:51:49.524Z,23.30
2019-01-31T13:54:44.761Z,23.30
2019-01-31T13:57:39.713Z,23.20
2019-01-31T14:00:34.341Z,23.20
2019-01-31T14:03:29.353Z,23.20
2019-01-31T14:06:25.000Z,23.10
2019-01-31T14:09:20.128Z,23.10
2019-01-31T14:12:14.943Z,23.00
2019-01-31T14:15:11.115Z,23.00
2019-01-31T14:18:06.500Z,22.90
2019-01-31T14:21:01.992Z,22.90
2019-01-31T14:23:57.110Z,22.80
2019-01-31T14:26:52.795Z,22.80
2019-01-31T14:29:57.219Z,22.70
2019-01-31T14:32:52.928Z,22.70
2019-01-31T14:35:48.255Z,22.70
2019-01-31T14:38:43.857Z,22.60
2019-01-31T14:41:48.616Z,22.60
2019-01-31T14:44:49.625Z,22.60
2019-01-31T14:48:00.552Z,22.50
2019-01-31T14:50:56.138Z,22.50
2019-01-31T14:54:01.720Z,22.40
2019-01-31T14:57:04.772Z,22.40
2019-01-31T15:00:07.178Z,22.40
2019-01-31T15:03:07.554Z,22.30
2019-01-31T15:06:12.016Z,22.30
2019-01-31T15:09:08.898Z,22.30
2019-01-31T15:15:29.986Z,22.20
2019-01-31T15:18:33.738Z,22.20
2019-01-31T15:21:35.666Z,22.10
2019-01-31T15:24:30.884Z,22.10
2019-01-31T15:27:30.068Z,22.10
2019-01-31T15:30:31.443Z,22.10
2019-01-31T15:33:27.182Z,22.00
2019-01-31T15:36:22.875Z,22.00
2019-01-31T15:39:18.073Z,22.00
2019-01-31T15:42:21.722Z,22.00
2019-01-31T15:45:17.334Z,21.90
2019-01-31T15:48:13.815Z,21.90
2019-01-31T15:51:17.855Z,21.90
2019-01-31T15:54:13.772Z,21.80
2019-01-31T15:57:17.767Z,21.80
2019-01-31T16:00:40.170Z,21.80
2019-01-31T16:03:44.013Z,21.80
2019-01-31T16:06:39.866Z,21.80
2019-01-31T16:09:43.029Z,21.80
2019-01-31T16:12:47.986Z,21.70
2019-01-31T16:15:52.109Z,21.70
2019-01-31T16:18:55.241Z,21.70
2019-01-31T16:21:50.337Z,21.70
2019-01-31T16:24:46.587Z,21.60
2019-01-31T16:27:49.296Z,21.60
2019-01-31T16:30:52.470Z,21.60
2019-01-31T16:33:53.759Z,21.60
2019-01-31T16:36:55.652Z,21.50
2019-01-31T16:39:52.510Z,21.50
2019-01-31T16:42:57.207Z,21.50
2019-01-31T16:46:03.298Z,21.50
2019-01-31T16:49:00.417Z,21.40
2019-01-31T16:51:57.155Z,21.40
2019-01-31T16:54:54.912Z,21.40
2019-01-31T16:57:55.838Z,21.40
2019-01-31T17:00:57.529Z,21.30
2019-01-31T17:03:54.224Z,21.30
2019-01-31T17:06:50.659Z,21.30
2019-01-31T17:09:46.643Z,21.30
2019-01-31T17:12:48.554Z,21.30
2019-01-31T17:15:52.195Z,21.30
2019-01-31T17:18:48.133Z,21.20
2019-01-31T17:21:43.530Z,21.20
2019-01-31T17:24:39.313Z,21.20
2019-01-31T17:27:34.249Z,21.20
2019-01-31T17:30:29.972Z,21.20
2019-01-31T17:36:40.884Z,21.10
2019-01-31T17:39:35.782Z,21.10
2019-01-31T17:42:30.706Z,21.00
2019-01-31T17:45:30.344Z,21.00
2019-01-31T17:48:20.949Z,21.00
2019-01-31T17:51:16.012Z,21.00
2019-01-31T17:54:11.233Z,20.90
2019-01-31T17:57:06.174Z,20.90
2019-01-31T18:00:03.238Z,20.90
2019-01-31T18:02:58.840Z,20.80
2019-01-31T18:05:54.173Z,20.80
2019-01-31T18:08:49.529Z,20.80
2019-01-31T18:12:02.347Z,20.70
2019-01-31T18:15:06.338Z,20.70
2019-01-31T18:18:01.404Z,20.70
2019-01-31T18:21:04.535Z,20.70
2019-01-31T18:24:03.795Z,20.60
2019-01-31T18:26:58.912Z,20.60
2019-01-31T18:29:53.734Z,20.50
2019-01-31T18:32:57.341Z,20.50
2019-01-31T18:35:52.266Z,20.50
2019-01-31T18:38:47.756Z,20.50
2019-01-31T18:41:42.577Z,20.50
2019-01-31T18:44:43.923Z,20.50
2019-01-31T18:47:45.805Z,20.40
2019-01-31T18:50:43.556Z,20.40
2019-01-31T18:53:45.324Z,20.40
2019-01-31T18:56:44.878Z,20.40
2019-01-31T18:59:44.442Z,20.30
2019-01-31T19:02:43.122Z,20.30
2019-01-31T19:05:47.619Z,20.30
2019-01-31T19:08:48.127Z,20.30
2019-01-31T19:15:00.972Z,20.20
2019-01-31T19:18:05.909Z,20.20
2019-01-31T19:24:24.992Z,20.20
2019-01-31T19:27:19.956Z,20.20
2019-01-31T19:30:25.162Z,20.20
2019-01-31T19:33:21.488Z,20.10
2019-01-31T19:36:16.056Z,20.10
2019-01-31T19:39:23.860Z,20.10
2019-01-31T19:42:27.320Z,20.00
2019-01-31T19:45:31.974Z,20.00
2019-01-31T19:48:27.810Z,20.00
2019-01-31T19:51:22.731Z,19.90
2019-01-31T19:54:26.830Z,19.90
2019-01-31T19:57:30.072Z,19.90
2019-01-31T20:00:33.387Z,19.90
2019-01-31T20:03:36.433Z,19.90
2019-01-31T20:06:39.560Z,19.80
2019-01-31T20:09:38.119Z,19.80
2019-01-31T20:12:38.553Z,19.80
2019-01-31T20:15:38.157Z,19.80
2019-01-31T20:18:37.754Z,19.80
2019-01-31T20:21:32.763Z,19.80
2019-01-31T20:24:32.388Z,19.80
2019-01-31T20:27:35.616Z,19.70
2019-01-31T20:30:38.892Z,19.70
2019-01-31T20:33:34.463Z,19.70
2019-01-31T20:36:29.490Z,19.70
2019-01-31T20:39:24.067Z,19.70
2019-01-31T20:42:27.529Z,19.60
2019-01-31T20:45:31.222Z,19.70
2019-01-31T20:48:34.467Z,19.60
2019-01-31T20:51:33.730Z,19.60
2019-01-31T20:54:37.313Z,19.60
2019-01-31T20:57:37.777Z,19.60
2019-01-31T21:00:42.005Z,19.60
2019-01-31T21:03:45.535Z,19.50
2019-01-31T21:06:49.157Z,19.50
2019-01-31T21:09:53.063Z,19.50
2019-01-31T21:12:56.329Z,19.50
2019-01-31T21:15:59.491Z,19.40
2019-01-31T21:19:03.429Z,19.40
2019-01-31T21:25:20.723Z,19.40
2019-01-31T21:28:24.486Z,19.40
2019-01-31T21:31:27.931Z,19.40
2019-01-31T21:34:22.824Z,19.30
2019-01-31T21:37:18.090Z,19.30
2019-01-31T21:40:21.347Z,19.30
2019-01-31T21:43:25.142Z,19.30
2019-01-31T21:49:28.221Z,19.30
2019-01-31T21:52:23.247Z,19.30
2019-01-31T21:55:27.036Z,19.30
2019-01-31T21:58:28.241Z,19.20
2019-01-31T22:01:31.695Z,19.20
2019-01-31T22:04:32.134Z,19.20
2019-01-31T22:07:33.763Z,19.20
2019-01-31T22:10:37.079Z,19.20
2019-01-31T22:13:40.342Z,19.20
2019-01-31T22:16:43.826Z,19.20
2019-01-31T22:19:47.221Z,19.20
2019-01-31T22:22:50.067Z,19.20
2019-01-31T22:25:54.159Z,19.10
2019-01-31T22:28:56.898Z,19.10
2019-01-31T22:31:59.899Z,19.10
2019-01-31T22:34:59.148Z,19.10
2019-01-31T22:37:59.433Z,19.10
2019-01-31T22:41:03.375Z,19.00
2019-01-31T22:44:07.120Z,19.00
2019-01-31T22:47:05.491Z,19.00
2019-01-31T22:50:09.003Z,19.00
2019-01-31T22:53:07.966Z,19.00
2019-01-31T22:56:10.876Z,18.90
2019-01-31T22:59:14.797Z,18.90
2019-01-31T23:02:18.204Z,18.90
2019-01-31T23:05:22.103Z,18.90
2019-01-31T23:08:26.307Z,18.90
2019-01-31T23:11:35.028Z,18.80
2019-01-31T23:14:37.833Z,18.80
2019-01-31T23:17:40.735Z,18.80
2019-01-31T23:20:45.069Z,18.80
2019-01-31T23:23:43.387Z,18.80
2019-01-31T23:26:38.055Z,18.80
2019-01-31T23:29:42.173Z,18.80
2019-01-31T23:32:45.690Z,18.80
2019-01-31T23:35:45.367Z,18.80
2019-01-31T23:38:47.322Z,18.80
2019-01-31T23:41:50.878Z,18.70
2019-01-31T23:44:53.002Z,18.70
2019-01-31T23:47:49.170Z,18.70
2019-01-31T23:50:53.043Z,18.70
2019-01-31T23:53:56.044Z,18.70
2019-01-31T23:56:59.348Z,18.70
